Phoenix, Arizona
Traffic Map
Current Weather Conditions
Phoenix, Arizona
Scattered Clouds
Scattered Clouds
99°
Feels Like: 99°
Wind Chill: 99° Ceiling: Unl
Heat Index: 99° Visibility: 10mi
Dew Point: 60° Wind: 9mph
Humidity: 28% Direction: 140° (SE)
Pressure: 29.88in Gusts: 0mph
Raw Report DataKPHX 301751Z 14008KT 10SM FEW080 FEW150 SCT250 37/16 A2988 RMK AO2 SLP096 T03720156 10372 20283 52001
Traffic Incident Summary
Active as of:
Severity:
Category:
InformationThere was an issue retrieving the traffic information for this location. Please try a different location or try again shortly.
Advertisements
Track Severe Weather on mobile